createdAt,value
2018-06-30T00:01:39.692Z,96443.00
2018-06-30T00:04:07.577Z,96436.00
2018-06-30T00:06:35.476Z,96434.00
2018-06-30T00:09:06.646Z,96433.00
2018-06-30T00:11:34.543Z,96432.00
2018-06-30T00:14:02.475Z,96427.00
2018-06-30T00:16:30.382Z,96437.00
2018-06-30T00:18:58.288Z,96420.00
2018-06-30T00:21:26.157Z,96422.00
2018-06-30T00:23:54.057Z,96426.00
2018-06-30T00:26:21.950Z,96416.00
2018-06-30T00:28:49.885Z,96416.00
2018-06-30T00:31:17.800Z,96414.00
2018-06-30T00:33:45.725Z,96412.00
2018-06-30T00:36:13.613Z,96406.00
2018-06-30T00:38:41.481Z,96408.00
2018-06-30T00:41:09.383Z,96415.00
2018-06-30T00:43:37.248Z,96415.00
2018-06-30T00:46:05.156Z,96407.00
2018-06-30T00:48:33.049Z,96408.00
2018-06-30T00:51:00.982Z,96404.00
2018-06-30T00:53:28.855Z,96409.00
2018-06-30T00:55:56.717Z,96404.00
2018-06-30T00:58:24.620Z,96408.00
2018-06-30T01:00:52.521Z,96404.00
2018-06-30T01:03:20.480Z,96402.00
2018-06-30T01:05:48.400Z,96399.00
2018-06-30T01:08:16.310Z,96395.00
2018-06-30T01:10:44.229Z,96395.00
2018-06-30T01:13:12.093Z,96403.00
2018-06-30T01:15:40.030Z,96398.00
2018-06-30T01:18:07.909Z,96399.00
2018-06-30T01:20:35.829Z,96393.00
2018-06-30T01:23:03.741Z,96406.00
2018-06-30T01:25:31.634Z,96402.00
2018-06-30T01:27:59.526Z,96405.00
2018-06-30T01:30:27.382Z,96401.00
2018-06-30T01:32:55.263Z,96403.00
2018-06-30T01:35:23.131Z,96400.00
2018-06-30T01:37:51.021Z,96404.00
2018-06-30T01:40:18.928Z,96397.00
2018-06-30T01:42:46.807Z,96398.00
2018-06-30T01:45:14.700Z,96398.00
2018-06-30T01:47:42.581Z,96389.00
2018-06-30T01:50:10.487Z,96394.00
2018-06-30T01:52:38.360Z,96393.00
2018-06-30T01:55:06.257Z,96393.00
2018-06-30T01:57:34.170Z,96389.00
2018-06-30T02:00:02.090Z,96391.00
2018-06-30T02:02:29.970Z,96394.00
2018-06-30T02:04:57.876Z,96391.00
2018-06-30T02:07:25.759Z,96389.00
2018-06-30T02:09:53.769Z,96388.00
2018-06-30T02:12:21.642Z,96395.00
2018-06-30T02:14:49.504Z,96393.00
2018-06-30T02:17:17.413Z,96389.00
2018-06-30T02:19:45.283Z,96395.00
2018-06-30T02:22:13.154Z,96390.00
2018-06-30T02:24:41.074Z,96392.00
2018-06-30T02:27:09.266Z,96391.00
2018-06-30T02:29:37.167Z,96388.00
2018-06-30T02:32:05.050Z,96383.00
2018-06-30T02:34:32.936Z,96389.00
2018-06-30T02:37:00.855Z,96388.00
2018-06-30T02:39:28.726Z,96389.00
2018-06-30T02:41:56.627Z,96387.00
2018-06-30T02:44:24.504Z,96390.00
2018-06-30T02:46:52.403Z,96391.00
2018-06-30T02:49:20.331Z,96388.00
2018-06-30T02:51:48.240Z,96390.00
2018-06-30T02:54:16.136Z,96383.00
2018-06-30T02:56:43.999Z,96378.00
2018-06-30T02:59:11.969Z,96378.00
2018-06-30T03:01:39.853Z,96380.00
2018-06-30T03:04:07.718Z,96375.00
2018-06-30T03:06:35.626Z,96383.00
2018-06-30T03:09:06.416Z,96375.00
2018-06-30T03:11:34.306Z,96380.00
2018-06-30T03:14:02.203Z,96379.00
2018-06-30T03:16:30.110Z,96382.00
2018-06-30T03:18:57.991Z,96377.00
2018-06-30T03:21:25.871Z,96370.00
2018-06-30T03:23:53.771Z,96379.00
2018-06-30T03:26:21.677Z,96369.00
2018-06-30T03:28:49.621Z,96369.00
2018-06-30T03:31:17.515Z,96369.00
2018-06-30T03:33:45.415Z,96371.00
2018-06-30T03:36:13.375Z,96378.00
2018-06-30T03:38:41.243Z,96375.00
2018-06-30T03:41:09.149Z,96368.00
2018-06-30T03:43:37.048Z,96368.00
2018-06-30T03:46:04.961Z,96376.00
2018-06-30T03:48:32.852Z,96374.00
2018-06-30T03:51:00.760Z,96376.00
2018-06-30T03:53:28.690Z,96362.00
2018-06-30T03:55:56.636Z,96370.00
2018-06-30T03:58:24.542Z,96365.00
2018-06-30T04:00:52.437Z,96376.00
2018-06-30T04:03:20.360Z,96381.00
2018-06-30T04:05:48.266Z,96371.00
2018-06-30T04:08:16.240Z,96378.00
2018-06-30T04:10:44.199Z,96382.00
2018-06-30T04:13:12.078Z,96379.00
2018-06-30T04:15:39.960Z,96380.00
2018-06-30T04:18:07.859Z,96381.00
2018-06-30T04:20:35.737Z,96377.00
2018-06-30T04:23:03.638Z,96388.00
2018-06-30T04:25:31.548Z,96375.00
2018-06-30T04:27:59.424Z,96372.00
2018-06-30T04:30:27.337Z,96379.00
2018-06-30T04:32:55.217Z,96379.00
2018-06-30T04:35:23.134Z,96380.00
2018-06-30T04:37:51.055Z,96390.00
2018-06-30T04:40:18.968Z,96388.00
2018-06-30T04:42:46.933Z,96385.00
2018-06-30T04:45:14.853Z,96393.00
2018-06-30T04:47:42.780Z,96388.00
2018-06-30T04:50:10.687Z,96389.00
2018-06-30T04:52:38.574Z,96389.00
2018-06-30T04:55:06.594Z,96395.00
2018-06-30T04:57:34.996Z,96397.00
2018-06-30T05:00:02.927Z,96399.00
2018-06-30T05:02:30.807Z,96394.00
2018-06-30T05:04:58.696Z,96398.00
2018-06-30T05:07:26.668Z,96398.00
2018-06-30T05:09:54.532Z,96398.00
2018-06-30T05:12:22.467Z,96398.00
2018-06-30T05:14:50.373Z,96403.00
2018-06-30T05:17:18.264Z,96400.00
2018-06-30T05:19:46.153Z,96400.00
2018-06-30T05:22:14.077Z,96403.00
2018-06-30T05:24:41.973Z,96395.00
2018-06-30T05:27:09.840Z,96400.00
2018-06-30T05:29:37.708Z,96400.00
2018-06-30T05:32:05.602Z,96403.00
2018-06-30T05:34:33.458Z,96408.00
2018-06-30T05:37:01.340Z,96408.00
2018-06-30T05:39:29.215Z,96408.00
2018-06-30T05:41:57.084Z,96403.00
2018-06-30T05:44:25.047Z,96405.00
2018-06-30T05:46:52.953Z,96420.00
2018-06-30T05:49:20.859Z,96411.00
2018-06-30T05:51:48.815Z,96410.00
2018-06-30T05:54:16.691Z,96410.00
2018-06-30T05:56:44.588Z,96404.00
2018-06-30T05:59:12.477Z,96411.00
2018-06-30T06:01:40.384Z,96413.00
2018-06-30T06:04:08.286Z,96409.00
2018-06-30T06:06:36.149Z,96411.00
2018-06-30T06:09:07.651Z,96415.00
2018-06-30T06:11:35.680Z,96416.00
2018-06-30T06:14:04.024Z,96415.00
2018-06-30T06:16:32.116Z,96414.00
2018-06-30T06:18:59.971Z,96418.00
2018-06-30T06:21:27.947Z,96410.00
2018-06-30T06:23:55.830Z,96415.00
2018-06-30T06:26:23.734Z,96421.00
2018-06-30T06:28:51.618Z,96415.00
2018-06-30T06:31:19.515Z,96425.00
2018-06-30T06:33:47.380Z,96423.00
2018-06-30T06:36:15.269Z,96431.00
2018-06-30T06:38:43.168Z,96423.00
2018-06-30T06:41:11.032Z,96426.00
2018-06-30T06:43:38.999Z,96427.00
2018-06-30T06:46:06.876Z,96424.00
2018-06-30T06:48:34.729Z,96418.00
2018-06-30T06:51:02.656Z,96417.00
2018-06-30T06:53:30.530Z,96415.00
2018-06-30T06:55:58.429Z,96417.00
2018-06-30T06:58:26.304Z,96415.00
2018-06-30T07:00:54.198Z,96411.00
2018-06-30T07:03:22.122Z,96410.00
2018-06-30T07:05:50.055Z,96411.00
2018-06-30T07:08:17.953Z,96419.00
2018-06-30T07:10:45.824Z,96414.00
2018-06-30T07:13:13.714Z,96411.00
2018-06-30T07:15:41.590Z,96406.00
2018-06-30T07:18:09.517Z,96403.00
2018-06-30T07:20:37.380Z,96405.00
2018-06-30T07:23:05.247Z,96403.00
2018-06-30T07:25:33.203Z,96411.00
2018-06-30T07:28:01.037Z,96405.00
2018-06-30T07:30:28.939Z,96410.00
2018-06-30T07:32:56.832Z,96404.00
2018-06-30T07:35:24.691Z,96404.00
2018-06-30T07:37:52.623Z,96410.00
2018-06-30T07:40:20.519Z,96406.00
2018-06-30T07:42:48.453Z,96412.00
2018-06-30T07:45:16.460Z,96414.00
2018-06-30T07:47:44.396Z,96414.00
2018-06-30T07:50:12.365Z,96416.00
2018-06-30T07:52:40.123Z,96416.00
2018-06-30T07:55:08.031Z,96415.00
2018-06-30T07:57:35.896Z,96424.00
2018-06-30T08:00:04.230Z,96412.00
2018-06-30T08:02:32.113Z,96418.00
2018-06-30T08:04:59.969Z,96421.00
2018-06-30T08:07:28.013Z,96410.00
2018-06-30T08:09:55.871Z,96411.00
2018-06-30T08:12:23.882Z,96415.00
2018-06-30T08:14:51.815Z,96412.00
2018-06-30T08:17:19.693Z,96419.00
2018-06-30T08:19:47.617Z,96411.00
2018-06-30T08:22:15.515Z,96407.00
2018-06-30T08:24:43.414Z,96410.00
2018-06-30T08:27:11.313Z,96415.00
2018-06-30T08:29:39.195Z,96404.00
2018-06-30T08:32:07.086Z,96407.00
2018-06-30T08:34:34.972Z,96408.00
2018-06-30T08:37:02.896Z,96400.00
2018-06-30T08:39:30.811Z,96399.00
2018-06-30T08:41:58.674Z,96400.00
2018-06-30T08:44:26.575Z,96402.00
2018-06-30T08:46:54.521Z,96401.00
2018-06-30T08:49:22.420Z,96399.00
2018-06-30T08:51:50.297Z,96406.00
2018-06-30T08:54:18.168Z,96403.00
2018-06-30T08:56:46.060Z,96409.00
2018-06-30T08:59:13.922Z,96408.00
2018-06-30T09:01:41.810Z,96405.00
2018-06-30T09:04:09.696Z,96397.00
2018-06-30T09:06:37.587Z,96401.00
2018-06-30T09:09:08.233Z,96403.00
2018-06-30T09:11:36.107Z,96396.00
2018-06-30T09:14:04.129Z,96402.00
2018-06-30T09:16:32.126Z,96400.00
2018-06-30T09:18:59.997Z,96406.00
2018-06-30T09:21:27.877Z,96403.00
2018-06-30T09:23:55.777Z,96407.00
2018-06-30T09:26:23.698Z,96398.00
2018-06-30T09:28:51.586Z,96395.00
2018-06-30T09:31:19.476Z,96391.00
2018-06-30T09:33:47.337Z,96393.00
2018-06-30T09:36:15.207Z,96390.00
2018-06-30T09:38:43.112Z,96384.00
2018-06-30T09:41:10.985Z,96383.00
2018-06-30T09:43:38.839Z,96392.00
2018-06-30T09:46:06.769Z,96391.00
2018-06-30T09:48:34.679Z,96389.00
2018-06-30T09:51:02.722Z,96383.00
2018-06-30T09:53:30.580Z,96385.00
2018-06-30T09:55:58.444Z,96394.00
2018-06-30T09:58:26.338Z,96389.00
2018-06-30T10:01:06.313Z,96392.00
2018-06-30T10:03:34.414Z,96385.00
2018-06-30T10:06:02.294Z,96392.00
2018-06-30T10:08:30.181Z,96387.00
2018-06-30T10:10:58.104Z,96389.00
2018-06-30T10:13:25.994Z,96386.00
2018-06-30T10:15:54.028Z,96383.00
2018-06-30T10:18:21.907Z,96376.00
2018-06-30T10:20:49.884Z,96388.00
2018-06-30T10:23:17.712Z,96376.00
2018-06-30T10:25:45.582Z,96376.00
2018-06-30T10:28:13.470Z,96377.00
2018-06-30T10:30:41.385Z,96367.00
2018-06-30T10:33:10.189Z,96362.00
2018-06-30T10:35:38.326Z,96359.00
2018-06-30T10:38:06.240Z,96361.00
2018-06-30T10:40:34.422Z,96357.00
2018-06-30T10:43:02.282Z,96352.00
2018-06-30T10:45:30.374Z,96359.00
2018-06-30T10:47:58.272Z,96344.00
2018-06-30T10:50:26.141Z,96339.00
2018-06-30T10:52:54.043Z,96339.00
2018-06-30T10:55:21.914Z,96338.00
2018-06-30T10:57:49.852Z,96338.00
2018-06-30T11:00:17.805Z,96330.00
2018-06-30T11:02:45.608Z,96334.00
2018-06-30T11:05:13.556Z,96327.00
2018-06-30T11:07:41.391Z,96329.00
2018-06-30T11:10:09.986Z,96334.00
2018-06-30T11:12:38.302Z,96329.00
2018-06-30T11:15:06.422Z,96321.00
2018-06-30T11:17:34.343Z,96328.00
2018-06-30T11:20:02.266Z,96318.00
2018-06-30T11:22:30.205Z,96311.00
2018-06-30T11:24:57.991Z,96316.00
2018-06-30T11:27:25.870Z,96315.00
2018-06-30T11:29:53.764Z,96306.00
2018-06-30T11:32:21.649Z,96295.00
2018-06-30T11:34:49.577Z,96299.00
2018-06-30T11:37:17.466Z,96292.00
2018-06-30T11:39:45.344Z,96288.00
2018-06-30T11:42:13.242Z,96281.00
2018-06-30T11:44:41.117Z,96285.00
2018-06-30T11:47:09.018Z,96283.00
2018-06-30T11:49:39.719Z,96282.00
2018-06-30T11:52:07.588Z,96278.00
2018-06-30T11:54:35.445Z,96273.00
2018-06-30T11:57:03.357Z,96278.00
2018-06-30T11:59:31.236Z,96277.00
2018-06-30T12:01:59.111Z,96270.00
2018-06-30T12:04:27.014Z,96275.00
2018-06-30T12:06:54.877Z,96261.00
2018-06-30T12:09:22.783Z,96263.00
2018-06-30T12:11:50.672Z,96267.00
2018-06-30T12:14:18.569Z,96269.00
2018-06-30T12:16:46.469Z,96262.00
2018-06-30T12:19:14.375Z,96256.00
2018-06-30T12:21:42.273Z,96253.00
2018-06-30T12:24:10.143Z,96250.00
2018-06-30T12:26:38.141Z,96250.00
2018-06-30T12:29:06.226Z,96252.00
2018-06-30T12:31:34.098Z,96244.00
2018-06-30T12:34:02.005Z,96240.00
2018-06-30T12:36:29.883Z,96244.00
2018-06-30T12:38:57.792Z,96240.00
2018-06-30T12:41:25.664Z,96240.00
2018-06-30T12:43:53.541Z,96239.00
2018-06-30T12:46:21.440Z,96223.00
2018-06-30T12:48:49.324Z,96236.00
2018-06-30T12:51:17.232Z,96240.00
2018-06-30T12:53:45.119Z,96232.00
2018-06-30T12:56:12.992Z,96220.00
2018-06-30T12:58:40.888Z,96230.00
2018-06-30T13:01:08.770Z,96218.00
2018-06-30T13:03:36.681Z,96219.00
2018-06-30T13:06:04.646Z,96215.00
2018-06-30T13:08:32.538Z,96218.00
2018-06-30T13:11:00.436Z,96272.00
2018-06-30T13:13:28.290Z,96240.00
2018-06-30T13:15:56.198Z,96213.00
2018-06-30T13:18:24.062Z,96207.00
2018-06-30T13:20:51.964Z,96216.00
2018-06-30T13:23:19.930Z,96212.00
2018-06-30T13:25:47.847Z,96202.00
2018-06-30T13:28:15.711Z,96212.00
2018-06-30T13:30:43.596Z,96216.00
2018-06-30T13:33:11.513Z,96216.00
2018-06-30T13:35:39.381Z,96207.00
2018-06-30T13:38:07.283Z,96202.00
2018-06-30T13:40:35.170Z,96201.00
2018-06-30T13:43:03.072Z,96200.00
2018-06-30T13:45:30.940Z,96200.00
2018-06-30T13:47:58.817Z,96205.00
2018-06-30T13:50:26.777Z,96201.00
2018-06-30T13:52:54.683Z,96191.00
2018-06-30T13:55:22.581Z,96193.00
2018-06-30T13:57:50.451Z,96219.00
2018-06-30T14:00:18.319Z,96189.00
2018-06-30T14:02:46.184Z,96186.00
2018-06-30T14:05:14.054Z,96187.00
2018-06-30T14:07:42.049Z,96181.00
2018-06-30T14:10:09.922Z,96185.00
2018-06-30T14:12:37.807Z,96180.00
2018-06-30T14:15:07.825Z,96178.00
2018-06-30T14:17:35.708Z,96178.00
2018-06-30T14:20:04.747Z,96176.00
2018-06-30T14:22:32.637Z,96168.00
2018-06-30T14:25:00.528Z,96167.00
2018-06-30T14:27:28.417Z,96174.00
2018-06-30T14:29:56.287Z,96165.00
2018-06-30T14:32:24.167Z,96167.00
2018-06-30T14:34:52.067Z,96161.00
2018-06-30T14:37:19.951Z,96156.00
2018-06-30T14:39:47.865Z,96151.00
2018-06-30T14:42:15.781Z,96160.00
2018-06-30T14:44:43.706Z,96146.00
2018-06-30T14:47:11.607Z,96146.00
2018-06-30T14:49:39.526Z,96149.00
2018-06-30T14:52:07.405Z,96212.00
2018-06-30T14:54:35.273Z,96202.00
2018-06-30T14:57:03.197Z,95843.00
2018-06-30T14:59:31.055Z,95851.00
2018-06-30T15:01:58.914Z,95837.00
2018-06-30T15:04:26.804Z,95839.00
2018-06-30T15:06:54.704Z,95843.00
2018-06-30T15:09:22.621Z,95851.00
2018-06-30T15:11:50.539Z,95819.00
2018-06-30T15:14:18.471Z,96055.00
2018-06-30T15:16:46.362Z,96151.00
2018-06-30T15:19:14.232Z,96155.00
2018-06-30T15:21:42.156Z,96160.00
2018-06-30T15:24:10.032Z,96157.00
2018-06-30T15:26:37.898Z,96220.00
2018-06-30T15:29:05.822Z,96154.00
2018-06-30T15:31:33.712Z,96155.00
2018-06-30T15:34:01.609Z,96165.00
2018-06-30T15:36:29.522Z,96168.00
2018-06-30T15:38:57.431Z,96155.00
2018-06-30T15:41:25.303Z,96156.00
2018-06-30T15:43:53.424Z,96157.00
2018-06-30T15:46:21.343Z,96163.00
2018-06-30T15:48:49.242Z,96162.00
2018-06-30T15:51:17.131Z,96155.00
2018-06-30T15:53:45.122Z,96165.00
2018-06-30T15:56:12.984Z,96162.00
2018-06-30T15:58:40.945Z,96169.00
2018-06-30T16:01:08.876Z,96164.00
2018-06-30T16:03:36.814Z,96163.00
2018-06-30T16:06:04.719Z,96173.00
2018-06-30T16:08:32.611Z,96164.00
2018-06-30T16:11:00.517Z,96167.00
2018-06-30T16:13:28.413Z,96161.00
2018-06-30T16:15:56.326Z,96163.00
2018-06-30T16:18:24.245Z,96164.00
2018-06-30T16:20:52.137Z,96163.00
2018-06-30T16:23:20.032Z,96160.00
2018-06-30T16:25:47.926Z,96168.00
2018-06-30T16:28:15.826Z,96161.00
2018-06-30T16:30:43.693Z,96157.00
2018-06-30T16:33:11.624Z,96170.00
2018-06-30T16:35:39.482Z,96167.00
2018-06-30T16:38:07.365Z,96168.00
2018-06-30T16:40:35.314Z,96167.00
2018-06-30T16:43:03.194Z,96164.00
2018-06-30T16:45:31.116Z,96167.00
2018-06-30T16:47:58.984Z,96170.00
2018-06-30T16:50:26.993Z,96168.00
2018-06-30T16:52:54.898Z,96168.00
2018-06-30T16:55:22.769Z,96173.00
2018-06-30T16:57:50.701Z,96164.00
2018-06-30T17:00:18.561Z,96168.00
2018-06-30T17:02:46.427Z,96170.00
2018-06-30T17:05:14.333Z,96167.00
2018-06-30T17:07:42.213Z,96158.00
2018-06-30T17:10:10.141Z,96162.00
2018-06-30T17:12:38.015Z,96164.00
2018-06-30T17:15:05.925Z,96169.00
2018-06-30T17:17:33.848Z,96163.00
2018-06-30T17:20:01.735Z,96164.00
2018-06-30T17:22:29.646Z,96165.00
2018-06-30T17:24:57.518Z,96170.00
2018-06-30T17:27:25.386Z,96161.00
2018-06-30T17:29:53.360Z,96167.00
2018-06-30T17:32:21.215Z,96166.00
2018-06-30T17:34:49.174Z,96162.00
2018-06-30T17:37:17.047Z,96161.00
2018-06-30T17:39:44.915Z,96164.00
2018-06-30T17:42:12.816Z,96159.00
2018-06-30T17:44:40.692Z,96158.00
2018-06-30T17:47:08.615Z,96159.00
2018-06-30T17:49:36.484Z,96162.00
2018-06-30T17:52:04.357Z,96156.00
2018-06-30T17:54:32.257Z,96160.00
2018-06-30T17:57:00.154Z,96158.00
2018-06-30T17:59:28.043Z,96169.00
2018-06-30T18:01:56.033Z,96171.00
2018-06-30T18:04:23.921Z,96171.00
2018-06-30T18:06:51.839Z,96176.00
2018-06-30T18:09:19.726Z,96178.00
2018-06-30T18:11:47.632Z,96183.00
2018-06-30T18:14:15.602Z,96180.00
2018-06-30T18:16:43.368Z,96186.00
2018-06-30T18:19:11.267Z,96188.00
2018-06-30T18:21:39.155Z,96193.00
2018-06-30T18:24:07.053Z,96191.00
2018-06-30T18:26:34.924Z,96197.00
2018-06-30T18:29:02.871Z,96202.00
2018-06-30T18:31:30.753Z,96207.00
2018-06-30T18:33:58.646Z,96212.00
2018-06-30T18:36:26.544Z,96215.00
2018-06-30T18:38:54.505Z,96213.00
2018-06-30T18:41:22.392Z,96219.00
2018-06-30T18:43:50.270Z,96227.00
2018-06-30T18:46:18.183Z,96238.00
2018-06-30T18:48:46.049Z,96251.00
2018-06-30T18:51:14.000Z,96265.00
2018-06-30T18:53:41.897Z,96261.00
2018-06-30T18:56:09.811Z,96267.00
2018-06-30T18:58:37.710Z,96273.00
2018-06-30T19:01:05.612Z,96272.00
2018-06-30T19:03:33.484Z,96272.00
2018-06-30T19:06:01.518Z,96270.00
2018-06-30T19:08:29.395Z,96279.00
2018-06-30T19:10:57.521Z,96277.00
2018-06-30T19:13:25.409Z,96276.00
2018-06-30T19:15:53.333Z,96277.00
2018-06-30T19:18:21.186Z,96275.00
2018-06-30T19:20:49.059Z,96282.00
2018-06-30T19:23:16.925Z,96280.00
2018-06-30T19:25:44.827Z,96282.00
2018-06-30T19:28:12.724Z,96282.00
2018-06-30T19:30:40.638Z,96288.00
2018-06-30T19:33:08.605Z,96295.00
2018-06-30T19:35:36.506Z,96286.00
2018-06-30T19:38:04.534Z,96298.00
2018-06-30T19:40:32.410Z,96297.00
2018-06-30T19:43:00.308Z,96303.00
2018-06-30T19:45:28.197Z,96297.00
2018-06-30T19:47:56.100Z,96296.00
2018-06-30T19:50:24.011Z,96303.00
2018-06-30T19:52:52.014Z,96306.00
2018-06-30T19:55:19.871Z,96303.00
2018-06-30T19:57:47.777Z,96302.00
2018-06-30T20:00:15.646Z,96306.00
2018-06-30T20:02:43.544Z,96302.00
2018-06-30T20:05:11.430Z,96306.00
2018-06-30T20:07:55.249Z,96304.00
2018-06-30T20:10:24.196Z,96306.00
2018-06-30T20:12:52.272Z,96310.00
2018-06-30T20:15:20.423Z,96312.00
2018-06-30T20:17:48.064Z,96309.00
2018-06-30T20:20:15.992Z,96309.00
2018-06-30T20:22:43.885Z,96300.00
2018-06-30T20:25:11.799Z,96302.00
2018-06-30T20:27:39.721Z,96306.00
2018-06-30T20:30:07.604Z,96304.00
2018-06-30T20:32:35.520Z,96307.00
2018-06-30T20:35:03.403Z,96309.00
2018-06-30T20:37:31.297Z,96313.00
2018-06-30T20:39:59.238Z,96314.00
2018-06-30T20:42:27.118Z,96313.00
2018-06-30T20:44:55.061Z,96311.00
2018-06-30T20:47:23.031Z,96320.00
2018-06-30T20:49:50.971Z,96324.00
2018-06-30T20:52:18.902Z,96319.00
2018-06-30T20:54:46.802Z,96316.00
2018-06-30T20:57:14.752Z,96323.00
2018-06-30T20:59:42.666Z,96311.00
2018-06-30T21:02:10.554Z,96322.00
2018-06-30T21:04:38.462Z,96320.00
2018-06-30T21:07:06.330Z,96325.00
2018-06-30T21:09:34.836Z,96324.00
2018-06-30T21:12:02.741Z,96326.00
2018-06-30T21:14:30.633Z,96314.00
2018-06-30T21:16:58.656Z,96319.00
2018-06-30T21:19:26.549Z,96319.00
2018-06-30T21:21:54.464Z,96325.00
2018-06-30T21:24:22.363Z,96327.00
2018-06-30T21:26:50.238Z,96327.00
2018-06-30T21:29:18.177Z,96333.00
2018-06-30T21:31:46.045Z,96328.00
2018-06-30T21:34:13.924Z,96330.00
2018-06-30T21:36:41.859Z,96326.00
2018-06-30T21:39:11.545Z,96339.00
2018-06-30T21:41:39.443Z,96345.00
2018-06-30T21:44:07.351Z,96337.00
2018-06-30T21:46:35.516Z,96339.00
2018-06-30T21:49:03.528Z,96343.00
2018-06-30T21:51:31.383Z,96346.00
2018-06-30T21:53:59.592Z,96341.00
2018-06-30T21:56:27.557Z,96347.00
2018-06-30T21:58:56.888Z,96345.00
2018-06-30T22:01:30.246Z,96343.00
2018-06-30T22:03:58.537Z,96355.00
2018-06-30T22:06:27.011Z,96351.00
2018-06-30T22:08:55.466Z,96351.00
2018-06-30T22:11:24.194Z,96351.00
2018-06-30T22:13:52.974Z,96344.00
2018-06-30T22:16:22.914Z,96343.00
2018-06-30T22:18:50.987Z,96346.00
2018-06-30T22:21:20.218Z,96336.00
2018-06-30T22:23:48.952Z,96341.00
2018-06-30T22:26:17.893Z,96337.00
2018-06-30T22:28:46.620Z,96341.00
2018-06-30T22:31:15.253Z,96343.00
2018-06-30T22:33:44.179Z,96334.00
2018-06-30T22:36:12.937Z,96340.00
2018-06-30T22:38:42.995Z,96334.00
2018-06-30T22:41:11.707Z,96328.00
2018-06-30T22:43:39.600Z,96328.00
2018-06-30T22:46:08.133Z,96335.00
2018-06-30T22:48:36.791Z,96331.00
2018-06-30T22:51:05.344Z,96331.00
2018-06-30T22:53:33.806Z,96329.00
2018-06-30T22:56:01.702Z,96332.00
2018-06-30T22:58:29.603Z,96325.00
2018-06-30T23:00:57.550Z,96334.00
2018-06-30T23:03:25.479Z,96330.00
2018-06-30T23:05:53.454Z,96332.00
2018-06-30T23:08:21.344Z,96329.00
2018-06-30T23:10:49.277Z,96330.00
2018-06-30T23:13:17.148Z,96325.00
2018-06-30T23:15:45.051Z,96334.00
2018-06-30T23:18:12.975Z,96321.00
2018-06-30T23:20:40.837Z,96315.00
2018-06-30T23:23:09.662Z,96322.00
2018-06-30T23:25:38.378Z,96328.00
2018-06-30T23:28:06.641Z,96320.00
2018-06-30T23:30:34.735Z,96325.00
2018-06-30T23:33:02.598Z,96324.00
2018-06-30T23:35:31.468Z,96323.00
2018-06-30T23:38:00.220Z,96322.00
2018-06-30T23:40:28.209Z,96324.00
2018-06-30T23:42:56.107Z,96322.00
2018-06-30T23:45:24.352Z,96320.00
2018-06-30T23:47:53.049Z,96335.00
2018-06-30T23:50:21.292Z,96331.00
2018-06-30T23:52:49.271Z,96330.00
2018-06-30T23:55:17.183Z,96331.00
2018-06-30T23:57:45.044Z,96332.00
